sensor_id;sensor_type;location;lat;lon;timestamp;pressure;altitude;pressure_sealevel;temperature;humidity
9889;BME280;4983;42.112;24.738;2022-09-13T00:02:13;99327.88;;;18.34;83.95
9889;BME280;4983;42.112;24.738;2022-09-13T00:04:40;99331.50;;;18.41;83.53
9889;BME280;4983;42.112;24.738;2022-09-13T00:07:07;99329.91;;;18.26;83.92
9889;BME280;4983;42.112;24.738;2022-09-13T00:09:34;99326.97;;;18.27;83.94
9889;BME280;4983;42.112;24.738;2022-09-13T00:12:03;99324.22;;;18.21;83.90
9889;BME280;4983;42.112;24.738;2022-09-13T00:14:32;99319.38;;;18.29;82.89
9889;BME280;4983;42.112;24.738;2022-09-13T00:16:59;99320.56;;;18.14;83.89
9889;BME280;4983;42.112;24.738;2022-09-13T00:19:25;99314.94;;;18.22;84.12
9889;BME280;4983;42.112;24.738;2022-09-13T00:21:52;99319.63;;;18.28;83.53
9889;BME280;4983;42.112;24.738;2022-09-13T00:24:20;99316.63;;;18.23;83.14
9889;BME280;4983;42.112;24.738;2022-09-13T00:26:47;99310.09;;;18.24;83.09
9889;BME280;4983;42.112;24.738;2022-09-13T00:29:15;99302.31;;;18.27;83.00
9889;BME280;4983;42.112;24.738;2022-09-13T00:31:42;99305.81;;;18.15;83.56
9889;BME280;4983;42.112;24.738;2022-09-13T00:34:09;99310.72;;;18.19;83.32
9889;BME280;4983;42.112;24.738;2022-09-13T00:36:36;99302.88;;;18.16;84.07
9889;BME280;4983;42.112;24.738;2022-09-13T00:39:03;99305.63;;;18.16;84.49
9889;BME280;4983;42.112;24.738;2022-09-13T00:41:29;99305.88;;;18.21;84.65
9889;BME280;4983;42.112;24.738;2022-09-13T00:43:59;99306.28;;;18.18;83.93
9889;BME280;4983;42.112;24.738;2022-09-13T00:46:32;99301.81;;;18.17;84.47
9889;BME280;4983;42.112;24.738;2022-09-13T00:49:06;99305.19;;;18.13;84.56
9889;BME280;4983;42.112;24.738;2022-09-13T00:51:37;99296.34;;;18.17;85.21
9889;BME280;4983;42.112;24.738;2022-09-13T00:54:04;99298.88;;;18.12;85.51
9889;BME280;4983;42.112;24.738;2022-09-13T00:56:34;99303.97;;;18.22;85.43
9889;BME280;4983;42.112;24.738;2022-09-13T00:59:06;99305.78;;;18.08;85.05
9889;BME280;4983;42.112;24.738;2022-09-13T01:01:39;99312.09;;;18.09;85.54
9889;BME280;4983;42.112;24.738;2022-09-13T01:04:07;99303.03;;;18.08;85.74
9889;BME280;4983;42.112;24.738;2022-09-13T01:06:37;99298.88;;;18.12;85.46
9889;BME280;4983;42.112;24.738;2022-09-13T01:09:05;99304.47;;;17.98;85.89
9889;BME280;4983;42.112;24.738;2022-09-13T01:11:39;99288.84;;;17.98;86.85
9889;BME280;4983;42.112;24.738;2022-09-13T01:14:08;99313.66;;;17.90;87.29
9889;BME280;4983;42.112;24.738;2022-09-13T01:16:36;99298.56;;;18.01;86.67
9889;BME280;4983;42.112;24.738;2022-09-13T01:19:04;99293.13;;;18.07;85.50
9889;BME280;4983;42.112;24.738;2022-09-13T01:24:55;99299.66;;;18.06;85.65
9889;BME280;4983;42.112;24.738;2022-09-13T01:27:41;99294.03;;;18.14;85.08
9889;BME280;4983;42.112;24.738;2022-09-13T01:30:16;99299.50;;;18.14;85.55
9889;BME280;4983;42.112;24.738;2022-09-13T01:32:58;99293.78;;;18.09;85.79
9889;BME280;4983;42.112;24.738;2022-09-13T01:35:37;99303.28;;;18.13;85.12
9889;BME280;4983;42.112;24.738;2022-09-13T01:38:15;99297.56;;;18.08;85.12
9889;BME280;4983;42.112;24.738;2022-09-13T01:40:52;99301.94;;;18.03;85.60
9889;BME280;4983;42.112;24.738;2022-09-13T01:43:29;99293.09;;;18.01;85.54
9889;BME280;4983;42.112;24.738;2022-09-13T01:46:03;99290.50;;;17.93;85.49
9889;BME280;4983;42.112;24.738;2022-09-13T01:48:38;99283.63;;;18.03;85.47
9889;BME280;4983;42.112;24.738;2022-09-13T01:51:11;99280.88;;;18.03;84.75
9889;BME280;4983;42.112;24.738;2022-09-13T01:53:49;99285.03;;;17.93;84.89
9889;BME280;4983;42.112;24.738;2022-09-13T01:56:22;99285.41;;;17.90;84.98
9889;BME280;4983;42.112;24.738;2022-09-13T01:58:54;99284.34;;;17.84;85.07
9889;BME280;4983;42.112;24.738;2022-09-13T02:01:27;99286.81;;;17.79;85.30
9889;BME280;4983;42.112;24.738;2022-09-13T02:03:59;99289.41;;;17.87;85.43
9889;BME280;4983;42.112;24.738;2022-09-13T02:06:31;99284.47;;;17.76;86.09
9889;BME280;4983;42.112;24.738;2022-09-13T02:09:02;99286.75;;;17.73;86.08
9889;BME280;4983;42.112;24.738;2022-09-13T02:11:31;99280.19;;;17.67;86.13
9889;BME280;4983;42.112;24.738;2022-09-13T02:14:05;99279.78;;;17.70;85.97
9889;BME280;4983;42.112;24.738;2022-09-13T02:16:38;99282.34;;;17.72;86.17
9889;BME280;4983;42.112;24.738;2022-09-13T02:19:10;99282.50;;;17.64;86.90
9889;BME280;4983;42.112;24.738;2022-09-13T02:21:42;99281.97;;;17.54;87.06
9889;BME280;4983;42.112;24.738;2022-09-13T02:24:12;99277.50;;;17.46;87.46
9889;BME280;4983;42.112;24.738;2022-09-13T02:26:41;99268.63;;;17.44;87.71
9889;BME280;4983;42.112;24.738;2022-09-13T02:29:13;99273.13;;;17.52;86.84
9889;BME280;4983;42.112;24.738;2022-09-13T02:31:47;99278.88;;;17.57;86.10
9889;BME280;4983;42.112;24.738;2022-09-13T02:34:19;99263.28;;;17.57;86.57
9889;BME280;4983;42.112;24.738;2022-09-13T02:36:49;99279.69;;;17.57;86.05
9889;BME280;4983;42.112;24.738;2022-09-13T02:39:22;99276.75;;;17.59;85.90
9889;BME280;4983;42.112;24.738;2022-09-13T02:41:53;99270.84;;;17.55;85.80
9889;BME280;4983;42.112;24.738;2022-09-13T02:44:26;99272.47;;;17.50;85.26
9889;BME280;4983;42.112;24.738;2022-09-13T02:47:05;99279.69;;;17.36;85.75
9889;BME280;4983;42.112;24.738;2022-09-13T02:49:43;99288.28;;;17.33;86.40
9889;BME280;4983;42.112;24.738;2022-09-13T02:52:21;99275.47;;;17.34;86.24
9889;BME280;4983;42.112;24.738;2022-09-13T02:54:55;99281.47;;;17.23;86.74
9889;BME280;4983;42.112;24.738;2022-09-13T02:57:27;99285.97;;;17.30;85.82
9889;BME280;4983;42.112;24.738;2022-09-13T02:59:56;99295.41;;;17.28;86.38
9889;BME280;4983;42.112;24.738;2022-09-13T03:02:26;99288.72;;;17.37;85.71
9889;BME280;4983;42.112;24.738;2022-09-13T03:04:54;99288.56;;;17.38;86.27
9889;BME280;4983;42.112;24.738;2022-09-13T03:07:22;99294.69;;;17.19;87.32
9889;BME280;4983;42.112;24.738;2022-09-13T03:09:51;99291.09;;;17.19;87.14
9889;BME280;4983;42.112;24.738;2022-09-13T03:12:32;99292.22;;;17.45;86.05
9889;BME280;4983;42.112;24.738;2022-09-13T03:15:12;99289.25;;;17.26;86.14
9889;BME280;4983;42.112;24.738;2022-09-13T03:17:51;99288.69;;;17.30;86.05
9889;BME280;4983;42.112;24.738;2022-09-13T03:20:24;99297.41;;;17.19;85.61
9889;BME280;4983;42.112;24.738;2022-09-13T03:23:23;99296.75;;;17.17;86.56
9889;BME280;4983;42.112;24.738;2022-09-13T03:26:19;99305.09;;;17.09;86.63
9889;BME280;4983;42.112;24.738;2022-09-13T03:28:54;99306.97;;;17.09;86.02
9889;BME280;4983;42.112;24.738;2022-09-13T03:31:30;99307.69;;;17.17;85.75
9889;BME280;4983;42.112;24.738;2022-09-13T03:34:06;99296.38;;;17.20;85.55
9889;BME280;4983;42.112;24.738;2022-09-13T03:36:37;99299.44;;;17.11;86.18
9889;BME280;4983;42.112;24.738;2022-09-13T03:39:13;99299.25;;;17.12;86.02
9889;BME280;4983;42.112;24.738;2022-09-13T03:41:46;99309.84;;;17.22;85.56
9889;BME280;4983;42.112;24.738;2022-09-13T03:44:18;99316.66;;;17.11;86.09
9889;BME280;4983;42.112;24.738;2022-09-13T03:46:50;99324.69;;;17.13;86.28
9889;BME280;4983;42.112;24.738;2022-09-13T03:49:20;99317.06;;;17.08;86.47
9889;BME280;4983;42.112;24.738;2022-09-13T03:51:49;99316.53;;;16.98;86.63
9889;BME280;4983;42.112;24.738;2022-09-13T03:54:19;99308.59;;;17.03;86.71
9889;BME280;4983;42.112;24.738;2022-09-13T03:57:06;99334.78;;;16.77;88.38
9889;BME280;4983;42.112;24.738;2022-09-13T03:59:33;99319.47;;;16.82;88.44
9889;BME280;4983;42.112;24.738;2022-09-13T04:02:01;99325.63;;;16.84;88.21
9889;BME280;4983;42.112;24.738;2022-09-13T04:04:30;99324.19;;;16.88;88.64
9889;BME280;4983;42.112;24.738;2022-09-13T04:06:57;99326.00;;;16.81;89.17
9889;BME280;4983;42.112;24.738;2022-09-13T04:09:27;99329.41;;;16.83;89.32
9889;BME280;4983;42.112;24.738;2022-09-13T04:11:54;99322.72;;;16.86;89.57
9889;BME280;4983;42.112;24.738;2022-09-13T04:14:21;99324.47;;;16.79;90.11
9889;BME280;4983;42.112;24.738;2022-09-13T04:16:50;99324.44;;;16.93;90.02
9889;BME280;4983;42.112;24.738;2022-09-13T04:19:17;99321.84;;;16.85;90.48
9889;BME280;4983;42.112;24.738;2022-09-13T04:21:47;99322.00;;;16.98;89.80
9889;BME280;4983;42.112;24.738;2022-09-13T04:24:14;99319.75;;;16.87;90.09
9889;BME280;4983;42.112;24.738;2022-09-13T04:26:41;99331.63;;;16.94;89.96
9889;BME280;4983;42.112;24.738;2022-09-13T04:29:08;99315.84;;;17.11;89.62
9889;BME280;4983;42.112;24.738;2022-09-13T04:31:35;99318.16;;;17.14;89.46
9889;BME280;4983;42.112;24.738;2022-09-13T04:34:03;99323.13;;;17.25;88.49
9889;BME280;4983;42.112;24.738;2022-09-13T04:36:30;99318.38;;;17.33;88.56
9889;BME280;4983;42.112;24.738;2022-09-13T04:38:58;99320.19;;;17.26;88.73
9889;BME280;4983;42.112;24.738;2022-09-13T04:41:25;99318.31;;;17.27;88.60
9889;BME280;4983;42.112;24.738;2022-09-13T04:43:52;99319.75;;;17.23;89.06
9889;BME280;4983;42.112;24.738;2022-09-13T04:46:19;99330.63;;;17.37;88.50
9889;BME280;4983;42.112;24.738;2022-09-13T04:48:47;99330.97;;;17.49;88.91
9889;BME280;4983;42.112;24.738;2022-09-13T04:51:15;99338.47;;;17.61;89.09
9889;BME280;4983;42.112;24.738;2022-09-13T04:53:44;99338.22;;;17.56;89.03
9889;BME280;4983;42.112;24.738;2022-09-13T04:56:12;99333.75;;;17.76;89.07
9889;BME280;4983;42.112;24.738;2022-09-13T05:01:28;99343.53;;;17.85;89.17
9889;BME280;4983;42.112;24.738;2022-09-13T05:03:57;99344.94;;;18.02;88.44
9889;BME280;4983;42.112;24.738;2022-09-13T05:06:26;99346.25;;;18.13;88.59
9889;BME280;4983;42.112;24.738;2022-09-13T05:08:55;99367.09;;;18.07;88.43
9889;BME280;4983;42.112;24.738;2022-09-13T05:11:26;99341.81;;;18.33;88.07
9889;BME280;4983;42.112;24.738;2022-09-13T05:13:59;99340.47;;;18.29;88.47
9889;BME280;4983;42.112;24.738;2022-09-13T05:16:37;99337.66;;;18.43;87.75
9889;BME280;4983;42.112;24.738;2022-09-13T05:19:08;99345.00;;;18.36;87.80
9889;BME280;4983;42.112;24.738;2022-09-13T05:21:46;99352.41;;;18.42;86.72
9889;BME280;4983;42.112;24.738;2022-09-13T05:26:57;99349.94;;;18.54;87.39
9889;BME280;4983;42.112;24.738;2022-09-13T05:29:24;99354.28;;;18.76;86.73
9889;BME280;4983;42.112;24.738;2022-09-13T05:31:51;99347.34;;;18.80;86.46
9889;BME280;4983;42.112;24.738;2022-09-13T05:34:18;99348.66;;;18.90;85.45
9889;BME280;4983;42.112;24.738;2022-09-13T05:36:45;99344.47;;;19.01;85.92
9889;BME280;4983;42.112;24.738;2022-09-13T05:39:16;99352.72;;;19.07;84.57
9889;BME280;4983;42.112;24.738;2022-09-13T05:41:44;99342.41;;;19.16;83.43
9889;BME280;4983;42.112;24.738;2022-09-13T05:44:12;99345.00;;;19.24;83.61
9889;BME280;4983;42.112;24.738;2022-09-13T05:46:39;99351.13;;;19.32;82.29
9889;BME280;4983;42.112;24.738;2022-09-13T05:49:06;99340.34;;;19.31;83.57
9889;BME280;4983;42.112;24.738;2022-09-13T05:51:33;99340.63;;;19.42;82.66
9889;BME280;4983;42.112;24.738;2022-09-13T05:54:00;99339.56;;;19.43;82.56
9889;BME280;4983;42.112;24.738;2022-09-13T05:56:28;99336.81;;;19.56;83.44
9889;BME280;4983;42.112;24.738;2022-09-13T05:58:57;99339.78;;;19.61;81.91
9889;BME280;4983;42.112;24.738;2022-09-13T06:01:27;99346.56;;;19.65;82.16
9889;BME280;4983;42.112;24.738;2022-09-13T06:03:56;99336.63;;;19.71;82.87
9889;BME280;4983;42.112;24.738;2022-09-13T06:06:24;99339.38;;;19.84;82.01
9889;BME280;4983;42.112;24.738;2022-09-13T06:08:51;99345.72;;;19.97;81.37
9889;BME280;4983;42.112;24.738;2022-09-13T06:11:19;99346.34;;;20.06;80.29
9889;BME280;4983;42.112;24.738;2022-09-13T06:13:46;99342.34;;;19.89;79.61
9889;BME280;4983;42.112;24.738;2022-09-13T06:16:13;99345.31;;;20.00;80.22
9889;BME280;4983;42.112;24.738;2022-09-13T06:18:43;99347.44;;;20.18;79.93
9889;BME280;4983;42.112;24.738;2022-09-13T06:21:12;99356.53;;;20.12;78.63
9889;BME280;4983;42.112;24.738;2022-09-13T06:23:42;99352.28;;;20.22;78.51
9889;BME280;4983;42.112;24.738;2022-09-13T06:26:10;99354.19;;;20.15;78.26
9889;BME280;4983;42.112;24.738;2022-09-13T06:28:38;99351.88;;;20.25;77.40
9889;BME280;4983;42.112;24.738;2022-09-13T06:31:09;99357.75;;;20.48;77.27
9889;BME280;4983;42.112;24.738;2022-09-13T06:33:38;99357.97;;;20.47;76.09
9889;BME280;4983;42.112;24.738;2022-09-13T06:36:08;99364.09;;;20.55;76.67
9889;BME280;4983;42.112;24.738;2022-09-13T06:38:38;99363.47;;;20.47;75.63
9889;BME280;4983;42.112;24.738;2022-09-13T06:41:06;99373.78;;;20.64;76.86
9889;BME280;4983;42.112;24.738;2022-09-13T06:43:34;99365.09;;;20.74;75.67
9889;BME280;4983;42.112;24.738;2022-09-13T06:46:02;99366.72;;;20.88;76.15
9889;BME280;4983;42.112;24.738;2022-09-13T06:48:31;99365.44;;;21.03;74.41
9889;BME280;4983;42.112;24.738;2022-09-13T06:50:59;99374.50;;;21.17;74.64
9889;BME280;4983;42.112;24.738;2022-09-13T06:53:27;99365.38;;;21.16;70.86
9889;BME280;4983;42.112;24.738;2022-09-13T06:55:59;99361.16;;;21.13;69.27
9889;BME280;4983;42.112;24.738;2022-09-13T06:58:28;99373.59;;;21.23;71.16
9889;BME280;4983;42.112;24.738;2022-09-13T07:01:05;99367.22;;;21.28;68.76
9889;BME280;4983;42.112;24.738;2022-09-13T07:03:34;99377.75;;;21.44;70.40
9889;BME280;4983;42.112;24.738;2022-09-13T07:06:06;99368.63;;;21.44;70.25
9889;BME280;4983;42.112;24.738;2022-09-13T07:08:34;99376.25;;;21.42;69.43
9889;BME280;4983;42.112;24.738;2022-09-13T07:11:01;99379.94;;;21.60;69.06
9889;BME280;4983;42.112;24.738;2022-09-13T07:13:27;99374.94;;;21.51;68.54
9889;BME280;4983;42.112;24.738;2022-09-13T07:15:55;99368.09;;;21.60;69.40
9889;BME280;4983;42.112;24.738;2022-09-13T07:18:22;99380.25;;;21.83;68.88
9889;BME280;4983;42.112;24.738;2022-09-13T07:20:50;99371.41;;;21.75;67.17
9889;BME280;4983;42.112;24.738;2022-09-13T07:23:17;99373.66;;;21.84;68.92
9889;BME280;4983;42.112;24.738;2022-09-13T07:25:52;99379.09;;;21.97;69.15
9889;BME280;4983;42.112;24.738;2022-09-13T07:28:19;99388.16;;;22.04;67.64
9889;BME280;4983;42.112;24.738;2022-09-13T07:30:46;99384.72;;;22.09;68.21
9889;BME280;4983;42.112;24.738;2022-09-13T07:33:13;99382.94;;;22.21;68.36
9889;BME280;4983;42.112;24.738;2022-09-13T07:35:40;99381.97;;;22.33;69.44
9889;BME280;4983;42.112;24.738;2022-09-13T07:38:07;99383.50;;;22.29;68.72
9889;BME280;4983;42.112;24.738;2022-09-13T07:40:33;99385.63;;;22.27;69.06
9889;BME280;4983;42.112;24.738;2022-09-13T07:43:02;99389.09;;;22.41;67.39
9889;BME280;4983;42.112;24.738;2022-09-13T07:45:29;99386.03;;;22.31;66.51
9889;BME280;4983;42.112;24.738;2022-09-13T07:47:56;99381.50;;;22.36;66.73
9889;BME280;4983;42.112;24.738;2022-09-13T07:50:23;99374.16;;;22.55;67.95
9889;BME280;4983;42.112;24.738;2022-09-13T07:52:52;99385.66;;;22.70;66.94
9889;BME280;4983;42.112;24.738;2022-09-13T07:55:19;99383.38;;;22.67;67.87
9889;BME280;4983;42.112;24.738;2022-09-13T07:57:46;99374.56;;;22.76;65.04
9889;BME280;4983;42.112;24.738;2022-09-13T08:00:14;99404.94;;;22.94;67.82
9889;BME280;4983;42.112;24.738;2022-09-13T08:02:41;99377.44;;;23.24;65.58
9889;BME280;4983;42.112;24.738;2022-09-13T08:05:08;99385.59;;;23.12;64.83
9889;BME280;4983;42.112;24.738;2022-09-13T08:07:35;99383.81;;;22.82;64.63
9889;BME280;4983;42.112;24.738;2022-09-13T08:10:02;99395.03;;;23.05;65.17
9889;BME280;4983;42.112;24.738;2022-09-13T08:12:29;99382.53;;;23.20;66.02
9889;BME280;4983;42.112;24.738;2022-09-13T08:17:27;99380.94;;;23.31;62.40
9889;BME280;4983;42.112;24.738;2022-09-13T08:19:54;99368.22;;;23.30;62.94
9889;BME280;4983;42.112;24.738;2022-09-13T08:22:21;99378.44;;;23.41;61.64
9889;BME280;4983;42.112;24.738;2022-09-13T08:24:48;99366.94;;;23.44;61.20
9889;BME280;4983;42.112;24.738;2022-09-13T08:27:15;99371.28;;;23.22;58.63
9889;BME280;4983;42.112;24.738;2022-09-13T08:29:41;99379.78;;;23.38;59.28
9889;BME280;4983;42.112;24.738;2022-09-13T08:32:08;99373.84;;;23.35;57.96
9889;BME280;4983;42.112;24.738;2022-09-13T08:34:36;99371.53;;;23.50;60.79
9889;BME280;4983;42.112;24.738;2022-09-13T08:37:03;99376.03;;;23.62;56.85
9889;BME280;4983;42.112;24.738;2022-09-13T08:39:30;99370.75;;;23.61;58.26
9889;BME280;4983;42.112;24.738;2022-09-13T08:42:05;99408.84;;;23.59;55.98
9889;BME280;4983;42.112;24.738;2022-09-13T08:44:38;99365.16;;;23.79;59.52
9889;BME280;4983;42.112;24.738;2022-09-13T08:47:21;99367.91;;;24.31;59.78
9889;BME280;4983;42.112;24.738;2022-09-13T08:49:58;99372.50;;;24.37;56.19
9889;BME280;4983;42.112;24.738;2022-09-13T08:52:29;99371.22;;;24.63;53.62
9889;BME280;4983;42.112;24.738;2022-09-13T08:54:56;99369.41;;;24.57;52.33
9889;BME280;4983;42.112;24.738;2022-09-13T08:57:27;99368.63;;;24.27;51.00
9889;BME280;4983;42.112;24.738;2022-09-13T09:00:02;99368.56;;;23.63;52.14
9889;BME280;4983;42.112;24.738;2022-09-13T09:02:46;99359.13;;;24.11;52.73
9889;BME280;4983;42.112;24.738;2022-09-13T09:05:18;99358.22;;;24.63;49.35
9889;BME280;4983;42.112;24.738;2022-09-13T09:07:48;99358.19;;;24.40;49.20
9889;BME280;4983;42.112;24.738;2022-09-13T09:10:20;99347.59;;;24.49;50.73
9889;BME280;4983;42.112;24.738;2022-09-13T09:12:50;99350.38;;;24.49;48.39
9889;BME280;4983;42.112;24.738;2022-09-13T09:15:21;99352.84;;;25.08;46.71
9889;BME280;4983;42.112;24.738;2022-09-13T09:17:54;99355.16;;;24.99;46.37
9889;BME280;4983;42.112;24.738;2022-09-13T09:20:26;99350.28;;;24.67;45.98
9889;BME280;4983;42.112;24.738;2022-09-13T09:22:58;99372.13;;;24.34;45.14
9889;BME280;4983;42.112;24.738;2022-09-13T09:25:27;99356.31;;;24.00;47.61
9889;BME280;4983;42.112;24.738;2022-09-13T09:27:57;99346.84;;;24.07;46.57
9889;BME280;4983;42.112;24.738;2022-09-13T09:30:32;99355.41;;;24.06;48.88
9889;BME280;4983;42.112;24.738;2022-09-13T09:33:16;99350.97;;;23.75;45.87
9889;BME280;4983;42.112;24.738;2022-09-13T09:35:57;99349.84;;;23.65;46.97
9889;BME280;4983;42.112;24.738;2022-09-13T09:38:35;99352.94;;;23.57;49.41
9889;BME280;4983;42.112;24.738;2022-09-13T09:41:08;99353.31;;;23.60;47.84
9889;BME280;4983;42.112;24.738;2022-09-13T09:43:41;99354.16;;;23.61;48.00
9889;BME280;4983;42.112;24.738;2022-09-13T09:46:11;99345.53;;;23.69;47.72
9889;BME280;4983;42.112;24.738;2022-09-13T09:48:45;99353.16;;;23.55;47.38
9889;BME280;4983;42.112;24.738;2022-09-13T09:51:17;99346.47;;;23.63;48.23
9889;BME280;4983;42.112;24.738;2022-09-13T09:53:49;99355.06;;;23.25;47.99
9889;BME280;4983;42.112;24.738;2022-09-13T09:56:22;99358.91;;;23.24;49.98
9889;BME280;4983;42.112;24.738;2022-09-13T09:58:50;99360.94;;;23.17;49.11
9889;BME280;4983;42.112;24.738;2022-09-13T10:01:23;99356.97;;;23.43;50.67
9889;BME280;4983;42.112;24.738;2022-09-13T10:03:54;99354.00;;;23.44;50.26
9889;BME280;4983;42.112;24.738;2022-09-13T10:06:26;99356.88;;;23.49;48.59
9889;BME280;4983;42.112;24.738;2022-09-13T10:08:58;99352.97;;;23.39;47.86
9889;BME280;4983;42.112;24.738;2022-09-13T10:11:40;99343.56;;;23.28;47.65
9889;BME280;4983;42.112;24.738;2022-09-13T10:14:27;99350.94;;;23.34;49.19
9889;BME280;4983;42.112;24.738;2022-09-13T10:17:16;99347.78;;;23.31;46.33
9889;BME280;4983;42.112;24.738;2022-09-13T10:19:52;99342.84;;;23.21;47.24
9889;BME280;4983;42.112;24.738;2022-09-13T10:22:21;99334.06;;;23.24;45.44
9889;BME280;4983;42.112;24.738;2022-09-13T10:24:48;99338.06;;;23.28;46.21
9889;BME280;4983;42.112;24.738;2022-09-13T10:27:20;99330.59;;;23.29;47.16
9889;BME280;4983;42.112;24.738;2022-09-13T10:29:50;99326.22;;;23.39;48.43
9889;BME280;4983;42.112;24.738;2022-09-13T10:32:19;99328.03;;;23.45;46.35
9889;BME280;4983;42.112;24.738;2022-09-13T10:34:47;99318.59;;;23.64;47.38
9889;BME280;4983;42.112;24.738;2022-09-13T10:37:16;99320.69;;;23.80;44.43
9889;BME280;4983;42.112;24.738;2022-09-13T10:39:55;99316.56;;;23.71;44.50
9889;BME280;4983;42.112;24.738;2022-09-13T10:42:25;99306.38;;;23.72;44.41
9889;BME280;4983;42.112;24.738;2022-09-13T10:44:59;99306.88;;;23.80;47.60
9889;BME280;4983;42.112;24.738;2022-09-13T10:47:30;99301.34;;;23.80;48.16
9889;BME280;4983;42.112;24.738;2022-09-13T10:50:11;99297.47;;;23.70;47.30
9889;BME280;4983;42.112;24.738;2022-09-13T10:52:43;99298.63;;;23.92;52.72
9889;BME280;4983;42.112;24.738;2022-09-13T10:55:30;99301.91;;;24.12;50.34
9889;BME280;4983;42.112;24.738;2022-09-13T10:58:17;99303.56;;;24.01;50.73
9889;BME280;4983;42.112;24.738;2022-09-13T11:04:18;99289.88;;;24.18;46.76
9889;BME280;4983;42.112;24.738;2022-09-13T11:07:10;99287.47;;;24.33;45.39
9889;BME280;4983;42.112;24.738;2022-09-13T11:09:47;99289.25;;;24.39;44.58
9889;BME280;4983;42.112;24.738;2022-09-13T11:12:18;99281.78;;;24.51;42.99
9889;BME280;4983;42.112;24.738;2022-09-13T11:14:58;99282.38;;;24.53;44.48
9889;BME280;4983;42.112;24.738;2022-09-13T11:17:51;99285.06;;;25.10;46.68
9889;BME280;4983;42.112;24.738;2022-09-13T11:20:23;99278.56;;;25.44;43.51
9889;BME280;4983;42.112;24.738;2022-09-13T11:23:11;99292.78;;;24.97;41.01
9889;BME280;4983;42.112;24.738;2022-09-13T11:25:53;99282.00;;;24.72;40.71
9889;BME280;4983;42.112;24.738;2022-09-13T11:28:29;99274.22;;;24.69;43.39
9889;BME280;4983;42.112;24.738;2022-09-13T11:31:13;99271.34;;;25.04;37.54
9889;BME280;4983;42.112;24.738;2022-09-13T11:33:52;99262.84;;;25.66;36.21
9889;BME280;4983;42.112;24.738;2022-09-13T11:36:33;99266.91;;;25.59;36.30
9889;BME280;4983;42.112;24.738;2022-09-13T11:39:11;99261.81;;;26.00;37.56
9889;BME280;4983;42.112;24.738;2022-09-13T11:41:53;99258.22;;;26.38;34.40
9889;BME280;4983;42.112;24.738;2022-09-13T11:44:42;99250.97;;;26.91;33.75
9889;BME280;4983;42.112;24.738;2022-09-13T11:47:22;99253.75;;;26.15;36.14
9889;BME280;4983;42.112;24.738;2022-09-13T11:50:16;99240.25;;;25.58;34.60
9889;BME280;4983;42.112;24.738;2022-09-13T11:52:56;99256.50;;;25.82;38.78
9889;BME280;4983;42.112;24.738;2022-09-13T11:55:29;99242.53;;;25.05;38.47
9889;BME280;4983;42.112;24.738;2022-09-13T11:58:01;99252.06;;;25.09;40.05
9889;BME280;4983;42.112;24.738;2022-09-13T12:00:34;99255.75;;;24.86;38.60
9889;BME280;4983;42.112;24.738;2022-09-13T12:03:14;99262.47;;;24.90;39.17
9889;BME280;4983;42.112;24.738;2022-09-13T12:05:46;99255.56;;;24.65;38.72
9889;BME280;4983;42.112;24.738;2022-09-13T12:08:18;99253.63;;;24.77;41.73
9889;BME280;4983;42.112;24.738;2022-09-13T12:10:50;99259.16;;;24.77;40.84
9889;BME280;4983;42.112;24.738;2022-09-13T12:13:21;99257.44;;;24.87;42.12
9889;BME280;4983;42.112;24.738;2022-09-13T12:15:52;99260.09;;;24.82;43.29
9889;BME280;4983;42.112;24.738;2022-09-13T12:18:24;99259.63;;;24.85;40.50
9889;BME280;4983;42.112;24.738;2022-09-13T12:20:54;99255.00;;;24.91;44.20
9889;BME280;4983;42.112;24.738;2022-09-13T12:23:28;99261.41;;;24.80;43.44
9889;BME280;4983;42.112;24.738;2022-09-13T12:25:59;99253.09;;;25.47;42.59
9889;BME280;4983;42.112;24.738;2022-09-13T12:28:34;99253.38;;;25.79;42.85
9889;BME280;4983;42.112;24.738;2022-09-13T12:31:09;99250.19;;;25.87;42.84
9889;BME280;4983;42.112;24.738;2022-09-13T12:33:38;99263.03;;;25.04;41.21
9889;BME280;4983;42.112;24.738;2022-09-13T12:36:27;99250.31;;;25.31;39.72
9889;BME280;4983;42.112;24.738;2022-09-13T12:39:25;99262.69;;;25.56;38.77
9889;BME280;4983;42.112;24.738;2022-09-13T12:42:17;99245.59;;;25.92;38.12
9889;BME280;4983;42.112;24.738;2022-09-13T12:44:59;99243.94;;;26.29;37.26
9889;BME280;4983;42.112;24.738;2022-09-13T12:47:52;99242.22;;;26.61;37.96
9889;BME280;4983;42.112;24.738;2022-09-13T12:50:38;99251.84;;;26.54;36.70
9889;BME280;4983;42.112;24.738;2022-09-13T12:53:23;99238.97;;;26.48;37.82
9889;BME280;4983;42.112;24.738;2022-09-13T12:56:02;99243.84;;;26.41;36.79
9889;BME280;4983;42.112;24.738;2022-09-13T12:58:52;99244.84;;;26.51;36.60
9889;BME280;4983;42.112;24.738;2022-09-13T13:01:25;99243.84;;;26.57;36.79
9889;BME280;4983;42.112;24.738;2022-09-13T13:03:57;99237.75;;;26.82;36.91
9889;BME280;4983;42.112;24.738;2022-09-13T13:06:29;99238.69;;;26.87;34.43
9889;BME280;4983;42.112;24.738;2022-09-13T13:09:01;99244.44;;;26.43;35.07
9889;BME280;4983;42.112;24.738;2022-09-13T13:11:41;99243.31;;;26.82;35.30
9889;BME280;4983;42.112;24.738;2022-09-13T13:14:25;99240.16;;;26.95;34.81
9889;BME280;4983;42.112;24.738;2022-09-13T13:16:53;99241.53;;;26.92;35.00
9889;BME280;4983;42.112;24.738;2022-09-13T13:19:39;99244.81;;;26.89;35.82
9889;BME280;4983;42.112;24.738;2022-09-13T13:25:30;99234.53;;;26.90;34.01
9889;BME280;4983;42.112;24.738;2022-09-13T13:27:57;99241.38;;;26.82;35.39
9889;BME280;4983;42.112;24.738;2022-09-13T13:30:49;99237.41;;;27.00;34.04
9889;BME280;4983;42.112;24.738;2022-09-13T13:33:25;99241.59;;;26.97;34.62
9889;BME280;4983;42.112;24.738;2022-09-13T13:35:53;99244.81;;;26.89;35.55
9889;BME280;4983;42.112;24.738;2022-09-13T13:38:40;99241.06;;;26.79;34.25
9889;BME280;4983;42.112;24.738;2022-09-13T13:41:37;99248.53;;;26.78;35.77
9889;BME280;4983;42.112;24.738;2022-09-13T13:50:21;99248.59;;;27.26;35.01
9889;BME280;4983;42.112;24.738;2022-09-13T13:52:53;99247.84;;;27.09;33.42
9889;BME280;4983;42.112;24.738;2022-09-13T13:55:36;99245.19;;;27.19;34.52
9889;BME280;4983;42.112;24.738;2022-09-13T13:58:11;99237.28;;;27.33;34.02
9889;BME280;4983;42.112;24.738;2022-09-13T14:00:46;99244.88;;;27.16;32.97
9889;BME280;4983;42.112;24.738;2022-09-13T14:03:22;99255.38;;;27.14;34.48